International Virtual Aviation Organisation

Russian Federation and Kazakhstan MCD

 

Карточка аэропорта UAII

Внимание!
Информация на этой странице в стадии наполнения.
Если вы не увидели какой-то информации, или заметили неточность - пожалуйста сообщите нам!
Спасибо!
Команда RU-STAFF
Название аэропортаШымкент
Название аэропорта (англ.)Shymkent
Превышение1389 ft. (423.4 m.)
Координаты42°21.348', 69°28.734'
Высота перехода5000
Эшелон переходаFL70
Коды ответчика3430-3437, 3530-3537
Зона ОрВДШымкент РПИ (UAII)
Данные METARUAII 271600Z VRB01MPS 5000 FU SCT050CB 06/M01 Q1019 R28/0///70 NOSIG RMK QFE727/0969
Проноз погоды (TAF)UAII 271108Z 2712/2812 20006MPS 3100 BR BKN030CB OVC100 TX04/2809Z TNM03/2802Z TEMPO 2712/2717 16006G11MPS 1500 SHRA BR BKN011 OVC020CB TEMPO 2717/2806 24010G15MPS 0500 SHSN FZFG BKN002 OVC015CB TEMPO 2806/2812 30009G14MPS 2000 SHRASN BKN005 OVC015CB
NOTAMshow/hide NOTAM
AWOS   TABLE

Информация о ВПП

ВПП Длина ВПП (м.) Покрытие Курс ВПП Частота ILS
103300Железобетон106111.7
283300Железобетон286110.3

Диспетчерские позиции




Спутниковое изображение